WetterOnline ( https://www.wetteronline.de )

Wetter aktuell Neuruppin

Aktuelles Wetter: Neuruppin - Alt Ruppin (50m)

6-stündlich | Neueste Meldungen
Ortszeit Temperatur Wetter
Di, 16.08. 14:00 28.3° C leicht bewölkt
Di, 16.08. 8:00 19.0° C leicht bewölkt
Di, 16.08. 2:00 18.6° C leicht bewölkt
Mo, 15.08. 20:00 20.3° C leichter Regen
Mo, 15.08. 14:00 27.8° C leichter Regen
Mo, 15.08. 8:00 21.9° C wolkenlos
Mo, 15.08. 2:00 20.8° C leicht bewölkt
So, 14.08. 20:00 29.2° C fast wolkenlos
Ortszeit Temperatur Wetter
Di, 16.08. 18:00 29.3° C leicht bewölkt
Di, 16.08. 17:40 29.3° C fast wolkenlos
Di, 16.08. 17:30 28.2° C leicht bewölkt
Di, 16.08. 17:20 28.2° C leicht bewölkt
Di, 16.08. 17:10 29.1° C bewölkt
Di, 16.08. 17:00 27.8° C bewölkt
Di, 16.08. 16:50 27.8° C bewölkt
Di, 16.08. 16:30 27.5° C bewölkt
Di, 16.08. 16:00 28.0° C leicht bewölkt
Di, 16.08. 15:30 28.4° C wolkig
Di, 16.08. 15:00 28.8° C fast wolkenlos
Ortszeit Relative Feuchte Sichtweite
Di, 16.08. 14:00 48% 30 km
Di, 16.08. 8:00 89% 7 km
Di, 16.08. 2:00 96% 6 km
Mo, 15.08. 20:00 87% 1.5 km
Mo, 15.08. 14:00 50% 30 km
Mo, 15.08. 8:00 74% 29 km
Mo, 15.08. 2:00 73% 40 km
So, 14.08. 20:00 35% 45 km
Ortszeit Relative Feuchte Sichtweite
Di, 16.08. 18:00 42% 60 km
Di, 16.08. 17:40 42% -
Di, 16.08. 17:30 42% 40 km
Di, 16.08. 17:20 42% -
Di, 16.08. 17:10 44% -
Di, 16.08. 17:00 50% 40 km
Di, 16.08. 16:50 50% -
Di, 16.08. 16:30 50% 40 km
Di, 16.08. 16:00 46% 60 km
Di, 16.08. 15:30 48% 50 km
Di, 16.08. 15:00 46% 50 km
Ortszeit Niederschlagsmenge Niederschlagsart
Di, 16.08. 14:00 0.0 l/m2 in 6 Std. -
Di, 16.08. 8:00 28 l/m2 in 12 Std. -
Di, 16.08. 2:00 28 l/m2 in 6 Std. Regen, Niederschlag
Mo, 15.08. 20:00 3 l/m2 in 12 Std. Regen
Mo, 15.08. 14:00 0.1 l/m2 in 6 Std. Regen
Mo, 15.08. 8:00 0.0 l/m2 in 12 Std. -
Mo, 15.08. 2:00 0.0 l/m2 in 6 Std. -
So, 14.08. 20:00 0.0 l/m2 in 12 Std. -
Ortszeit Niederschlagsmenge Niederschlagsart
Di, 16.08. 18:00 0.0 l/m2 in 1 Std. -
Di, 16.08. 17:40 keine Meldung -
Di, 16.08. 17:30 0.0 l/m2 in 1 Std. -
Di, 16.08. 17:20 keine Meldung -
Di, 16.08. 17:10 keine Meldung -
Di, 16.08. 17:00 0.0 l/m2 in 1 Std. -
Di, 16.08. 16:50 keine Meldung -
Di, 16.08. 16:30 0.0 l/m2 in 1 Std. -
Di, 16.08. 16:00 0.0 l/m2 in 1 Std. -
Di, 16.08. 15:30 0.0 l/m2 in 1 Std. -
Di, 16.08. 15:00 0.0 l/m2 in 1 Std. -
Ortszeit Stärke Spitze Richtung
km/h Bft. km/h Grad Sektor
Di, 16.08. 14:00 7 2 22 170° S
Di, 16.08. 8:00 4 1 11 150° SO
Di, 16.08. 2:00 4 1 29 210° SW
Mo, 15.08. 20:00 17 3 50 190° S
Mo, 15.08. 14:00 11 2 29 110° O
Mo, 15.08. 8:00 7 2 14 100° O
Mo, 15.08. 2:00 4 1 22 50° NO
So, 14.08. 20:00 4 1 29 40° NO
Ortszeit Stärke Spitze Richtung
km/h Bft. km/h Grad Sektor
Di, 16.08. 18:00 7 2 14 240° SW
Di, 16.08. 17:40 4 1 - 200° S
Di, 16.08. 17:30 7 2 13 210° SW
Di, 16.08. 17:20 7 2 - 210° SW
Di, 16.08. 17:10 6 1 - 230° SW
Di, 16.08. 17:00 4 1 11 230° SW
Di, 16.08. 16:50 4 1 - 230° SW
Di, 16.08. 16:30 7 2 11 210° SW
Di, 16.08. 16:00 4 1 14 220° SW
Di, 16.08. 15:30 6 1 17 220° SW
Di, 16.08. 15:00 6 1 19 180° S
Ortszeit Untergrenze Bedeckung Gattung
total tief tief mittel hoch
Di, 16.08. 14:00 1500 m 4/8 4/8 - - -
Di, 16.08. 8:00 10500 m 3/8 0/8 - - -
Di, 16.08. 2:00 4200 m 4/8 4/8 - - -
Mo, 15.08. 20:00 1020 m 7/8 7/8 - - -
Mo, 15.08. 14:00 840 m 7/8 7/8 - - -
Mo, 15.08. 8:00 - 0/8 0/8 - - -
Mo, 15.08. 2:00 10500 m 3/8 0/8 - - -
So, 14.08. 20:00 10500 m 1/8 0/8 - - -
Ortszeit Bedeckungsgrad in Achtel und Wolkenuntergrenze
Di, 16.08. 18:00 2(3600m)
Di, 16.08. 17:40 1
Di, 16.08. 17:30 1(2700m) 5(3300m)
Di, 16.08. 17:20 1(2700m) 5(3300m)
Di, 16.08. 17:10 7
Di, 16.08. 17:00 7(3300m)
Di, 16.08. 16:50 7(3300m)
Di, 16.08. 16:30 7(3000m)
Di, 16.08. 16:00 3(2700m)
Di, 16.08. 15:30 4(1500m) 5(1800m) 6(2700m)
Di, 16.08. 15:00 1(1500m)
Ortszeit Luftdruck NN (hPa) Tendenz (hPa in 3 Std.)
Di, 16.08. 14:00 1009 + 0,2
Di, 16.08. 8:00 1007 + 0,6
Di, 16.08. 2:00 1006 + 0,1
Mo, 15.08. 20:00 1006 + 2,3
Mo, 15.08. 14:00 1004 - 1,3
Mo, 15.08. 8:00 1006 - 0,3
Mo, 15.08. 2:00 1007 - 0,9
So, 14.08. 20:00 1007 - 1,2
Ortszeit Luftdruck NN (hPa) Tendenz (hPa in 3 Std.)
Di, 16.08. 18:00 1008 - 0,2
Di, 16.08. 17:40 1009 keine Meldung
Di, 16.08. 17:30 1009 - 0,1
Di, 16.08. 17:20 1009 keine Meldung
Di, 16.08. 17:10 1009 keine Meldung
Di, 16.08. 17:00 1009 0,0
Di, 16.08. 16:50 1009 keine Meldung
Di, 16.08. 16:30 1009 0,0
Di, 16.08. 16:00 1009 0,0
Di, 16.08. 15:30 1009 + 0,2
Di, 16.08. 15:00 1009 0,0
Ortszeit Schneehöhe (cm)
Di, 16.08. 14:00 0
Di, 16.08. 8:00 0
Di, 16.08. 2:00 0
Mo, 15.08. 20:00 0
Mo, 15.08. 14:00 0
Mo, 15.08. 8:00 0
Mo, 15.08. 2:00 0
So, 14.08. 20:00 0
Ortszeit Schneehöhe (cm)
Di, 16.08. 18:00 0
Di, 16.08. 17:40 0
Di, 16.08. 17:30 0
Di, 16.08. 17:20 0
Di, 16.08. 17:10 0
Di, 16.08. 17:00 0
Di, 16.08. 16:50 0
Di, 16.08. 16:30 0
Di, 16.08. 16:00 0
Di, 16.08. 15:30 0
Di, 16.08. 15:00 0
Link zu dieser Seite / Seite empfehlen

Das Wetter in ...